sensor_id;sensor_type;location;lat;lon;timestamp;pressure;altitude;pressure_sealevel;temperature;humidity
3102;BME280;1561;42.666;23.392;2024-03-22T00:00:29;95274.78;;;6.08;100.00
3102;BME280;1561;42.666;23.392;2024-03-22T00:03:06;95274.78;;;6.08;100.00
3102;BME280;1561;42.666;23.392;2024-03-22T00:05:42;95267.69;;;6.13;100.00
3102;BME280;1561;42.666;23.392;2024-03-22T00:08:26;95279.34;;;5.89;100.00
3102;BME280;1561;42.666;23.392;2024-03-22T00:11:14;95281.25;;;5.85;100.00
3102;BME280;1561;42.666;23.392;2024-03-22T00:13:50;95265.22;;;5.85;100.00
3102;BME280;1561;42.666;23.392;2024-03-22T00:16:27;95255.88;;;5.99;100.00
3102;BME280;1561;42.666;23.392;2024-03-22T00:19:16;95264.34;;;6.12;100.00
3102;BME280;1561;42.666;23.392;2024-03-22T00:21:45;95264.50;;;6.23;100.00
3102;BME280;1561;42.666;23.392;2024-03-22T00:24:14;95267.34;;;6.05;100.00
3102;BME280;1561;42.666;23.392;2024-03-22T00:26:51;95266.34;;;6.07;100.00
3102;BME280;1561;42.666;23.392;2024-03-22T00:29:43;95245.31;;;5.79;100.00
3102;BME280;1561;42.666;23.392;2024-03-22T00:32:17;95264.78;;;5.92;100.00
3102;BME280;1561;42.666;23.392;2024-03-22T00:34:49;95269.72;;;6.08;100.00
3102;BME280;1561;42.666;23.392;2024-03-22T00:37:23;95237.41;;;5.97;100.00
3102;BME280;1561;42.666;23.392;2024-03-22T00:39:52;95273.81;;;5.96;100.00
3102;BME280;1561;42.666;23.392;2024-03-22T00:42:31;95264.34;;;5.86;100.00
3102;BME280;1561;42.666;23.392;2024-03-22T00:45:08;95245.94;;;5.96;100.00
3102;BME280;1561;42.666;23.392;2024-03-22T00:47:36;95258.31;;;6.01;100.00
3102;BME280;1561;42.666;23.392;2024-03-22T00:50:09;95261.00;;;5.85;100.00
3102;BME280;1561;42.666;23.392;2024-03-22T00:52:45;95260.06;;;5.72;100.00
3102;BME280;1561;42.666;23.392;2024-03-22T00:55:11;95261.44;;;5.78;100.00
3102;BME280;1561;42.666;23.392;2024-03-22T00:57:41;95261.53;;;5.76;100.00
3102;BME280;1561;42.666;23.392;2024-03-22T01:00:08;95247.13;;;5.77;100.00
3102;BME280;1561;42.666;23.392;2024-03-22T01:02:50;95252.81;;;6.21;100.00
3102;BME280;1561;42.666;23.392;2024-03-22T01:05:17;95247.44;;;6.25;97.78
3102;BME280;1561;42.666;23.392;2024-03-22T01:07:48;95250.06;;;6.24;98.70
3102;BME280;1561;42.666;23.392;2024-03-22T01:10:17;95257.75;;;6.36;97.62
3102;BME280;1561;42.666;23.392;2024-03-22T01:13:17;95253.69;;;6.46;95.87
3102;BME280;1561;42.666;23.392;2024-03-22T01:15:48;95248.44;;;6.62;93.72
3102;BME280;1561;42.666;23.392;2024-03-22T01:18:23;95255.47;;;6.83;91.48
3102;BME280;1561;42.666;23.392;2024-03-22T01:20:54;95264.38;;;6.64;92.39
3102;BME280;1561;42.666;23.392;2024-03-22T01:23:23;95246.06;;;6.34;96.97
3102;BME280;1561;42.666;23.392;2024-03-22T01:26:00;95254.97;;;6.27;100.00
3102;BME280;1561;42.666;23.392;2024-03-22T01:28:30;95140.28;;;5.56;100.00
3102;BME280;1561;42.666;23.392;2024-03-22T01:31:04;95242.09;;;6.30;100.00
3102;BME280;1561;42.666;23.392;2024-03-22T01:33:33;95255.91;;;6.38;100.00
3102;BME280;1561;42.666;23.392;2024-03-22T01:36:05;95263.28;;;6.29;100.00
3102;BME280;1561;42.666;23.392;2024-03-22T01:38:34;95199.16;;;5.74;100.00
3102;BME280;1561;42.666;23.392;2024-03-22T01:41:04;95261.78;;;6.00;100.00
3102;BME280;1561;42.666;23.392;2024-03-22T01:43:38;95274.41;;;5.59;100.00
3102;BME280;1561;42.666;23.392;2024-03-22T01:46:15;95264.94;;;5.21;100.00
3102;BME280;1561;42.666;23.392;2024-03-22T01:48:47;95260.75;;;4.92;100.00
3102;BME280;1561;42.666;23.392;2024-03-22T01:51:21;95261.81;;;4.88;100.00
3102;BME280;1561;42.666;23.392;2024-03-22T01:53:54;95266.47;;;4.95;100.00
3102;BME280;1561;42.666;23.392;2024-03-22T01:56:35;95236.94;;;4.66;100.00
3102;BME280;1561;42.666;23.392;2024-03-22T01:59:05;95272.66;;;4.76;100.00
3102;BME280;1561;42.666;23.392;2024-03-22T02:01:53;95266.09;;;4.87;100.00
3102;BME280;1561;42.666;23.392;2024-03-22T02:04:24;95261.56;;;4.78;100.00
3102;BME280;1561;42.666;23.392;2024-03-22T02:07:00;95271.91;;;4.60;100.00
3102;BME280;1561;42.666;23.392;2024-03-22T02:09:30;95234.28;;;4.40;100.00
3102;BME280;1561;42.666;23.392;2024-03-22T02:12:03;95267.00;;;4.57;100.00
3102;BME280;1561;42.666;23.392;2024-03-22T02:14:45;95269.13;;;4.64;100.00
3102;BME280;1561;42.666;23.392;2024-03-22T02:17:15;95270.81;;;4.50;100.00
3102;BME280;1561;42.666;23.392;2024-03-22T02:19:43;95264.41;;;4.58;100.00
3102;BME280;1561;42.666;23.392;2024-03-22T02:22:14;95243.16;;;4.47;100.00
3102;BME280;1561;42.666;23.392;2024-03-22T02:24:55;95269.28;;;4.61;100.00
3102;BME280;1561;42.666;23.392;2024-03-22T02:27:28;95261.69;;;4.47;100.00
3102;BME280;1561;42.666;23.392;2024-03-22T02:30:03;95274.00;;;4.67;100.00
3102;BME280;1561;42.666;23.392;2024-03-22T02:32:40;95266.88;;;4.74;100.00
3102;BME280;1561;42.666;23.392;2024-03-22T02:35:07;95263.72;;;4.70;100.00
3102;BME280;1561;42.666;23.392;2024-03-22T02:37:49;95283.69;;;4.75;100.00
3102;BME280;1561;42.666;23.392;2024-03-22T02:40:23;95269.94;;;4.65;100.00
3102;BME280;1561;42.666;23.392;2024-03-22T02:43:07;95290.63;;;4.71;100.00
3102;BME280;1561;42.666;23.392;2024-03-22T02:45:38;95284.72;;;5.00;100.00
3102;BME280;1561;42.666;23.392;2024-03-22T02:48:11;95293.84;;;4.89;100.00
3102;BME280;1561;42.666;23.392;2024-03-22T02:50:44;95260.78;;;4.48;100.00
3102;BME280;1561;42.666;23.392;2024-03-22T02:53:12;95287.94;;;4.45;100.00
3102;BME280;1561;42.666;23.392;2024-03-22T02:55:41;95286.81;;;4.35;100.00
3102;BME280;1561;42.666;23.392;2024-03-22T02:58:12;95304.94;;;4.27;100.00
3102;BME280;1561;42.666;23.392;2024-03-22T03:00:41;95299.66;;;4.16;100.00
3102;BME280;1561;42.666;23.392;2024-03-22T03:03:23;95287.19;;;3.98;100.00
3102;BME280;1561;42.666;23.392;2024-03-22T03:05:51;95231.41;;;3.56;100.00
3102;BME280;1561;42.666;23.392;2024-03-22T03:08:20;95319.06;;;4.00;100.00
3102;BME280;1561;42.666;23.392;2024-03-22T03:11:13;95294.44;;;3.88;100.00
3102;BME280;1561;42.666;23.392;2024-03-22T03:13:50;95281.75;;;3.74;100.00
3102;BME280;1561;42.666;23.392;2024-03-22T03:16:18;95321.03;;;3.95;100.00
3102;BME280;1561;42.666;23.392;2024-03-22T03:18:46;95331.38;;;3.75;100.00
3102;BME280;1561;42.666;23.392;2024-03-22T03:21:18;95321.44;;;3.88;100.00
3102;BME280;1561;42.666;23.392;2024-03-22T03:23:47;95318.09;;;3.87;100.00
3102;BME280;1561;42.666;23.392;2024-03-22T03:26:46;95326.41;;;3.74;100.00
3102;BME280;1561;42.666;23.392;2024-03-22T03:29:15;95329.03;;;3.72;100.00
3102;BME280;1561;42.666;23.392;2024-03-22T03:31:47;95312.81;;;3.61;100.00
3102;BME280;1561;42.666;23.392;2024-03-22T03:34:19;95321.38;;;3.74;100.00
3102;BME280;1561;42.666;23.392;2024-03-22T03:36:52;95341.66;;;3.88;100.00
3102;BME280;1561;42.666;23.392;2024-03-22T03:39:22;95344.91;;;3.90;100.00
3102;BME280;1561;42.666;23.392;2024-03-22T03:41:54;95343.28;;;3.89;100.00
3102;BME280;1561;42.666;23.392;2024-03-22T03:44:22;95344.41;;;3.68;100.00
3102;BME280;1561;42.666;23.392;2024-03-22T03:46:52;95341.47;;;3.75;100.00
3102;BME280;1561;42.666;23.392;2024-03-22T03:49:45;95291.19;;;3.40;100.00
3102;BME280;1561;42.666;23.392;2024-03-22T03:52:18;95345.78;;;3.58;100.00
3102;BME280;1561;42.666;23.392;2024-03-22T03:54:53;95334.22;;;3.69;100.00
3102;BME280;1561;42.666;23.392;2024-03-22T03:57:32;95343.25;;;3.58;100.00
3102;BME280;1561;42.666;23.392;2024-03-22T04:00:04;95347.69;;;3.70;100.00
3102;BME280;1561;42.666;23.392;2024-03-22T04:02:36;95345.56;;;3.62;100.00
3102;BME280;1561;42.666;23.392;2024-03-22T04:05:10;95340.97;;;3.69;100.00
3102;BME280;1561;42.666;23.392;2024-03-22T04:07:53;95351.25;;;3.66;100.00
3102;BME280;1561;42.666;23.392;2024-03-22T04:10:26;95354.75;;;3.63;100.00
3102;BME280;1561;42.666;23.392;2024-03-22T04:12:57;95344.31;;;3.54;100.00
3102;BME280;1561;42.666;23.392;2024-03-22T04:15:33;95355.69;;;3.78;100.00
3102;BME280;1561;42.666;23.392;2024-03-22T04:18:02;95353.88;;;3.80;100.00
3102;BME280;1561;42.666;23.392;2024-03-22T04:20:34;95362.13;;;3.99;100.00
3102;BME280;1561;42.666;23.392;2024-03-22T04:23:08;95356.19;;;3.84;100.00
3102;BME280;1561;42.666;23.392;2024-03-22T04:25:40;95352.34;;;3.93;100.00
3102;BME280;1561;42.666;23.392;2024-03-22T04:28:13;95370.38;;;4.02;100.00
3102;BME280;1561;42.666;23.392;2024-03-22T04:30:53;95359.28;;;4.05;100.00
3102;BME280;1561;42.666;23.392;2024-03-22T04:33:29;95360.16;;;4.04;100.00
3102;BME280;1561;42.666;23.392;2024-03-22T04:36:04;95349.41;;;4.00;100.00
3102;BME280;1561;42.666;23.392;2024-03-22T04:38:39;95371.81;;;4.06;100.00
3102;BME280;1561;42.666;23.392;2024-03-22T04:41:14;95363.66;;;4.01;100.00
3102;BME280;1561;42.666;23.392;2024-03-22T04:43:49;95379.25;;;4.09;100.00
3102;BME280;1561;42.666;23.392;2024-03-22T04:46:25;95373.31;;;5.00;100.00
3102;BME280;1561;42.666;23.392;2024-03-22T04:49:02;95369.34;;;5.68;100.00
3102;BME280;1561;42.666;23.392;2024-03-22T04:51:30;95373.34;;;6.26;100.00
3102;BME280;1561;42.666;23.392;2024-03-22T04:54:25;95383.59;;;7.17;100.00
3102;BME280;1561;42.666;23.392;2024-03-22T04:56:56;95381.66;;;7.08;100.00
3102;BME280;1561;42.666;23.392;2024-03-22T04:59:43;95376.69;;;8.55;100.00
3102;BME280;1561;42.666;23.392;2024-03-22T05:02:12;95371.84;;;7.66;99.85
3102;BME280;1561;42.666;23.392;2024-03-22T05:04:41;95362.28;;;8.90;97.34
3102;BME280;1561;42.666;23.392;2024-03-22T05:07:16;95375.88;;;8.54;94.60
3102;BME280;1561;42.666;23.392;2024-03-22T05:09:48;95371.34;;;8.70;96.73
3102;BME280;1561;42.666;23.392;2024-03-22T05:12:26;95378.00;;;9.75;91.40
3102;BME280;1561;42.666;23.392;2024-03-22T05:15:06;95331.28;;;9.07;83.71
3102;BME280;1561;42.666;23.392;2024-03-22T05:17:39;95384.84;;;9.29;84.05
3102;BME280;1561;42.666;23.392;2024-03-22T05:20:18;95393.91;;;9.90;79.50
3102;BME280;1561;42.666;23.392;2024-03-22T05:22:56;95249.16;;;8.93;80.07
3102;BME280;1561;42.666;23.392;2024-03-22T05:26:00;95384.19;;;10.17;74.20
3102;BME280;1561;42.666;23.392;2024-03-22T05:28:35;95386.78;;;9.49;75.63
3102;BME280;1561;42.666;23.392;2024-03-22T05:31:24;95390.53;;;8.98;76.77
3102;BME280;1561;42.666;23.392;2024-03-22T05:33:54;95373.25;;;9.25;79.16
3102;BME280;1561;42.666;23.392;2024-03-22T05:36:28;95374.41;;;10.44;73.90
3102;BME280;1561;42.666;23.392;2024-03-22T05:39:06;95320.56;;;9.26;74.20
3102;BME280;1561;42.666;23.392;2024-03-22T05:42:04;95394.69;;;9.79;76.94
3102;BME280;1561;42.666;23.392;2024-03-22T05:44:39;95392.34;;;10.53;74.29
3102;BME280;1561;42.666;23.392;2024-03-22T05:50:51;95404.22;;;10.43;69.57
3102;BME280;1561;42.666;23.392;2024-03-22T05:53:27;95399.50;;;11.65;66.22
3102;BME280;1561;42.666;23.392;2024-03-22T05:55:55;95404.25;;;11.90;62.60
3102;BME280;1561;42.666;23.392;2024-03-22T05:58:33;95379.88;;;13.79;57.87
3102;BME280;1561;42.666;23.392;2024-03-22T06:01:03;95388.66;;;13.57;55.90
3102;BME280;1561;42.666;23.392;2024-03-22T06:03:34;95410.97;;;13.38;56.12
3102;BME280;1561;42.666;23.392;2024-03-22T06:09:12;95340.38;;;13.05;54.34
3102;BME280;1561;42.666;23.392;2024-03-22T06:11:44;95410.53;;;13.80;54.45
3102;BME280;1561;42.666;23.392;2024-03-22T06:14:37;95377.13;;;14.63;53.17
3102;BME280;1561;42.666;23.392;2024-03-22T06:17:20;95389.63;;;16.39;49.07
3102;BME280;1561;42.666;23.392;2024-03-22T06:19:59;95386.38;;;15.78;48.57
3102;BME280;1561;42.666;23.392;2024-03-22T06:22:44;95395.66;;;16.14;48.14
3102;BME280;1561;42.666;23.392;2024-03-22T06:25:32;95392.50;;;17.28;45.70
3102;BME280;1561;42.666;23.392;2024-03-22T06:28:05;95392.59;;;16.19;45.29
3102;BME280;1561;42.666;23.392;2024-03-22T06:30:49;95393.94;;;17.30;44.37
3102;BME280;1561;42.666;23.392;2024-03-22T06:33:51;95398.78;;;16.60;44.74
3102;BME280;1561;42.666;23.392;2024-03-22T06:36:53;95340.03;;;15.18;46.13
3102;BME280;1561;42.666;23.392;2024-03-22T06:39:38;95373.56;;;15.26;46.30
3102;BME280;1561;42.666;23.392;2024-03-22T06:42:22;95405.09;;;16.73;46.55
3102;BME280;1561;42.666;23.392;2024-03-22T06:44:57;95353.63;;;15.28;48.51
3102;BME280;1561;42.666;23.392;2024-03-22T06:47:42;95409.16;;;16.42;48.21
3102;BME280;1561;42.666;23.392;2024-03-22T06:50:19;95420.06;;;15.85;48.32
3102;BME280;1561;42.666;23.392;2024-03-22T06:53:22;95408.44;;;17.07;46.03
3102;BME280;1561;42.666;23.392;2024-03-22T06:56:11;95417.88;;;17.40;45.16
3102;BME280;1561;42.666;23.392;2024-03-22T06:58:44;95419.25;;;17.11;45.84
3102;BME280;1561;42.666;23.392;2024-03-22T07:01:18;95414.06;;;17.03;45.45
3102;BME280;1561;42.666;23.392;2024-03-22T07:03:48;95422.66;;;16.36;46.71
3102;BME280;1561;42.666;23.392;2024-03-22T07:06:41;95418.03;;;17.47;44.71
3102;BME280;1561;42.666;23.392;2024-03-22T07:09:30;95427.19;;;17.25;45.30
3102;BME280;1561;42.666;23.392;2024-03-22T07:12:01;95415.91;;;18.14;43.84
3102;BME280;1561;42.666;23.392;2024-03-22T07:14:37;95423.13;;;16.57;46.21
3102;BME280;1561;42.666;23.392;2024-03-22T07:17:18;95423.38;;;17.61;44.82
3102;BME280;1561;42.666;23.392;2024-03-22T07:23:05;95431.28;;;18.00;44.78
3102;BME280;1561;42.666;23.392;2024-03-22T07:25:40;95418.06;;;18.73;41.74
3102;BME280;1561;42.666;23.392;2024-03-22T07:28:11;95417.75;;;16.84;44.24
3102;BME280;1561;42.666;23.392;2024-03-22T07:30:42;95426.06;;;19.92;40.72
3102;BME280;1561;42.666;23.392;2024-03-22T07:33:13;95430.31;;;19.48;40.09
3102;BME280;1561;42.666;23.392;2024-03-22T07:36:05;95429.19;;;17.95;41.74
3102;BME280;1561;42.666;23.392;2024-03-22T07:38:34;95423.84;;;19.44;40.72
3102;BME280;1561;42.666;23.392;2024-03-22T07:41:05;95415.25;;;20.03;39.65
3102;BME280;1561;42.666;23.392;2024-03-22T07:43:36;95419.56;;;20.91;38.28
3102;BME280;1561;42.666;23.392;2024-03-22T07:46:09;95422.16;;;19.74;38.24
3102;BME280;1561;42.666;23.392;2024-03-22T07:48:51;95404.22;;;21.53;36.98
3102;BME280;1561;42.666;23.392;2024-03-22T07:51:23;95413.16;;;21.65;36.54
3102;BME280;1561;42.666;23.392;2024-03-22T07:53:52;95411.47;;;23.36;34.55
3102;BME280;1561;42.666;23.392;2024-03-22T07:56:19;95426.19;;;21.86;34.62
3102;BME280;1561;42.666;23.392;2024-03-22T07:58:45;95415.28;;;21.55;36.09
3102;BME280;1561;42.666;23.392;2024-03-22T08:01:16;95423.31;;;20.74;36.28
3102;BME280;1561;42.666;23.392;2024-03-22T08:03:43;95428.13;;;21.42;35.89
3102;BME280;1561;42.666;23.392;2024-03-22T08:06:11;95419.03;;;21.31;35.97
3102;BME280;1561;42.666;23.392;2024-03-22T08:08:39;95419.53;;;20.77;36.25
3102;BME280;1561;42.666;23.392;2024-03-22T08:11:09;95421.03;;;20.13;36.08
3102;BME280;1561;42.666;23.392;2024-03-22T08:13:38;95422.06;;;22.80;34.82
3102;BME280;1561;42.666;23.392;2024-03-22T08:16:12;95412.56;;;24.52;32.72
3102;BME280;1561;42.666;23.392;2024-03-22T08:18:43;95400.00;;;20.08;36.17
3102;BME280;1561;42.666;23.392;2024-03-22T08:21:11;95428.22;;;18.12;38.72
3102;BME280;1561;42.666;23.392;2024-03-22T08:23:38;95382.84;;;20.65;37.31
3102;BME280;1561;42.666;23.392;2024-03-22T08:26:16;95397.69;;;20.86;35.83
3102;BME280;1561;42.666;23.392;2024-03-22T08:28:47;95364.66;;;20.94;35.99
3102;BME280;1561;42.666;23.392;2024-03-22T08:31:15;95315.44;;;18.50;38.47
3102;BME280;1561;42.666;23.392;2024-03-22T08:33:44;95419.56;;;18.60;38.78
3102;BME280;1561;42.666;23.392;2024-03-22T08:36:16;95397.38;;;20.45;37.56
3102;BME280;1561;42.666;23.392;2024-03-22T08:38:43;95411.13;;;20.46;36.96
3102;BME280;1561;42.666;23.392;2024-03-22T08:41:13;95403.47;;;20.01;37.13
3102;BME280;1561;42.666;23.392;2024-03-22T08:43:42;95407.94;;;20.44;36.74
3102;BME280;1561;42.666;23.392;2024-03-22T08:46:11;95363.75;;;20.00;37.36
3102;BME280;1561;42.666;23.392;2024-03-22T08:48:44;95407.94;;;20.07;37.22
3102;BME280;1561;42.666;23.392;2024-03-22T08:51:14;95416.00;;;18.53;39.65
3102;BME280;1561;42.666;23.392;2024-03-22T08:53:40;95421.84;;;19.77;38.20
3102;BME280;1561;42.666;23.392;2024-03-22T08:56:08;95408.63;;;21.94;34.87
3102;BME280;1561;42.666;23.392;2024-03-22T08:58:34;95388.06;;;21.36;35.33
3102;BME280;1561;42.666;23.392;2024-03-22T09:01:01;95412.75;;;21.26;36.40
3102;BME280;1561;42.666;23.392;2024-03-22T09:03:28;95417.03;;;20.03;36.67
3102;BME280;1561;42.666;23.392;2024-03-22T09:05:57;95415.03;;;18.62;39.49
3102;BME280;1561;42.666;23.392;2024-03-22T09:08:25;95417.44;;;19.77;37.53
3102;BME280;1561;42.666;23.392;2024-03-22T09:10:57;95402.59;;;19.26;38.71
3102;BME280;1561;42.666;23.392;2024-03-22T09:13:23;95407.63;;;20.82;36.42
3102;BME280;1561;42.666;23.392;2024-03-22T09:15:59;95413.88;;;17.62;39.55
3102;BME280;1561;42.666;23.392;2024-03-22T09:18:26;95405.94;;;20.31;37.19
3102;BME280;1561;42.666;23.392;2024-03-22T09:21:01;95401.47;;;18.52;37.93
3102;BME280;1561;42.666;23.392;2024-03-22T09:23:29;95398.16;;;20.46;37.22
3102;BME280;1561;42.666;23.392;2024-03-22T09:26:03;95384.56;;;21.23;36.00
3102;BME280;1561;42.666;23.392;2024-03-22T09:28:33;95393.50;;;18.61;38.46
3102;BME280;1561;42.666;23.392;2024-03-22T09:31:04;95393.59;;;19.96;37.86
3102;BME280;1561;42.666;23.392;2024-03-22T09:33:32;95400.22;;;19.09;37.81
3102;BME280;1561;42.666;23.392;2024-03-22T09:36:02;95356.38;;;19.38;37.39
3102;BME280;1561;42.666;23.392;2024-03-22T09:38:32;95385.25;;;20.38;36.50
3102;BME280;1561;42.666;23.392;2024-03-22T09:40:59;95380.63;;;20.19;37.03
3102;BME280;1561;42.666;23.392;2024-03-22T09:43:31;95375.66;;;19.95;37.14
3102;BME280;1561;42.666;23.392;2024-03-22T09:46:01;95372.75;;;20.41;36.34
3102;BME280;1561;42.666;23.392;2024-03-22T09:48:33;95368.53;;;21.61;35.27
3102;BME280;1561;42.666;23.392;2024-03-22T09:51:03;95376.44;;;21.95;34.74
3102;BME280;1561;42.666;23.392;2024-03-22T09:53:32;95387.03;;;20.81;35.92
3102;BME280;1561;42.666;23.392;2024-03-22T09:56:04;95384.38;;;21.45;35.62
3102;BME280;1561;42.666;23.392;2024-03-22T09:58:30;95366.13;;;21.18;35.35
3102;BME280;1561;42.666;23.392;2024-03-22T10:01:13;95347.34;;;20.87;35.97
3102;BME280;1561;42.666;23.392;2024-03-22T10:03:59;95346.16;;;21.88;35.11
3102;BME280;1561;42.666;23.392;2024-03-22T10:06:33;95369.59;;;20.46;36.60
3102;BME280;1561;42.666;23.392;2024-03-22T10:09:07;95359.22;;;20.46;36.27
3102;BME280;1561;42.666;23.392;2024-03-22T10:11:45;95331.34;;;19.96;36.77
3102;BME280;1561;42.666;23.392;2024-03-22T10:14:16;95372.91;;;20.25;36.04
3102;BME280;1561;42.666;23.392;2024-03-22T10:16:47;95363.22;;;20.77;35.42
3102;BME280;1561;42.666;23.392;2024-03-22T10:19:18;95355.44;;;21.13;35.00
3102;BME280;1561;42.666;23.392;2024-03-22T10:22:00;95355.94;;;21.02;35.18
3102;BME280;1561;42.666;23.392;2024-03-22T10:24:31;95352.06;;;21.54;35.03
3102;BME280;1561;42.666;23.392;2024-03-22T10:26:58;95345.69;;;20.07;35.47
3102;BME280;1561;42.666;23.392;2024-03-22T10:29:27;95323.22;;;21.98;34.27
3102;BME280;1561;42.666;23.392;2024-03-22T10:31:55;95343.03;;;20.29;34.98
3102;BME280;1561;42.666;23.392;2024-03-22T10:34:24;95340.13;;;20.68;34.64
3102;BME280;1561;42.666;23.392;2024-03-22T10:36:59;95330.09;;;18.65;37.15
3102;BME280;1561;42.666;23.392;2024-03-22T10:39:32;95337.75;;;18.81;37.17
3102;BME280;1561;42.666;23.392;2024-03-22T10:41:59;95333.00;;;18.62;37.55
3102;BME280;1561;42.666;23.392;2024-03-22T10:44:31;95342.59;;;17.99;37.54
3102;BME280;1561;42.666;23.392;2024-03-22T10:47:09;95295.69;;;17.08;38.19
3102;BME280;1561;42.666;23.392;2024-03-22T10:49:42;95329.84;;;19.50;36.76
3102;BME280;1561;42.666;23.392;2024-03-22T10:52:13;95329.09;;;19.64;36.04
3102;BME280;1561;42.666;23.392;2024-03-22T10:54:45;95324.53;;;19.66;36.38
3102;BME280;1561;42.666;23.392;2024-03-22T10:57:37;95318.38;;;19.67;36.63
3102;BME280;1561;42.666;23.392;2024-03-22T11:00:14;95303.44;;;20.71;34.75
3102;BME280;1561;42.666;23.392;2024-03-22T11:02:46;95313.81;;;21.06;33.35
3102;BME280;1561;42.666;23.392;2024-03-22T11:05:19;95314.91;;;18.16;37.35
3102;BME280;1561;42.666;23.392;2024-03-22T11:07:58;95311.31;;;19.16;36.47
3102;BME280;1561;42.666;23.392;2024-03-22T11:10:29;95284.94;;;18.37;37.84
3102;BME280;1561;42.666;23.392;2024-03-22T11:13:01;95307.91;;;18.71;37.68
3102;BME280;1561;42.666;23.392;2024-03-22T11:15:38;95310.19;;;18.35;37.81
3102;BME280;1561;42.666;23.392;2024-03-22T11:18:06;95291.38;;;19.25;36.73
3102;BME280;1561;42.666;23.392;2024-03-22T11:20:49;95298.38;;;19.90;35.94
3102;BME280;1561;42.666;23.392;2024-03-22T11:23:26;95300.00;;;20.35;35.59
3102;BME280;1561;42.666;23.392;2024-03-22T11:25:58;95298.13;;;17.41;38.77
3102;BME280;1561;42.666;23.392;2024-03-22T11:28:44;95312.53;;;16.54;40.58
3102;BME280;1561;42.666;23.392;2024-03-22T11:31:10;95308.41;;;17.65;39.62
3102;BME280;1561;42.666;23.392;2024-03-22T11:33:41;95303.34;;;17.96;37.63
3102;BME280;1561;42.666;23.392;2024-03-22T11:36:10;95298.75;;;17.43;38.06
3102;BME280;1561;42.666;23.392;2024-03-22T11:39:13;95293.75;;;19.04;37.00
3102;BME280;1561;42.666;23.392;2024-03-22T11:41:49;95288.22;;;18.15;38.20
3102;BME280;1561;42.666;23.392;2024-03-22T11:44:16;95234.16;;;18.89;37.70
3102;BME280;1561;42.666;23.392;2024-03-22T11:46:44;95278.47;;;19.54;37.06
3102;BME280;1561;42.666;23.392;2024-03-22T11:49:13;95283.53;;;17.72;38.42
3102;BME280;1561;42.666;23.392;2024-03-22T11:51:47;95282.91;;;16.82;39.20
3102;BME280;1561;42.666;23.392;2024-03-22T11:54:19;95276.31;;;17.44;38.90
3102;BME280;1561;42.666;23.392;2024-03-22T11:56:55;95257.75;;;18.94;36.85
3102;BME280;1561;42.666;23.392;2024-03-22T11:59:24;95258.00;;;19.22;36.65
3102;BME280;1561;42.666;23.392;2024-03-22T12:01:55;95263.50;;;18.82;37.01
3102;BME280;1561;42.666;23.392;2024-03-22T12:04:48;95262.66;;;17.90;38.44
3102;BME280;1561;42.666;23.392;2024-03-22T12:07:17;95271.31;;;17.18;38.32
3102;BME280;1561;42.666;23.392;2024-03-22T12:09:50;95227.94;;;16.90;38.58
3102;BME280;1561;42.666;23.392;2024-03-22T12:12:17;95247.56;;;17.39;38.66
3102;BME280;1561;42.666;23.392;2024-03-22T12:14:47;95250.16;;;17.31;38.44
3102;BME280;1561;42.666;23.392;2024-03-22T12:17:35;95140.50;;;15.65;39.13
3102;BME280;1561;42.666;23.392;2024-03-22T12:20:09;95244.13;;;17.70;38.50
3102;BME280;1561;42.666;23.392;2024-03-22T12:22:36;95246.28;;;16.71;39.03
3102;BME280;1561;42.666;23.392;2024-03-22T12:25:06;95229.34;;;16.02;40.23
3102;BME280;1561;42.666;23.392;2024-03-22T12:27:38;95249.44;;;16.32;39.82
3102;BME280;1561;42.666;23.392;2024-03-22T12:30:07;95237.63;;;16.22;40.08
3102;BME280;1561;42.666;23.392;2024-03-22T12:32:38;95240.16;;;16.72;39.30
3102;BME280;1561;42.666;23.392;2024-03-22T12:35:08;95223.53;;;16.58;39.27
3102;BME280;1561;42.666;23.392;2024-03-22T12:37:47;95220.44;;;17.59;38.46
3102;BME280;1561;42.666;23.392;2024-03-22T12:40:27;95215.50;;;18.18;37.80
3102;BME280;1561;42.666;23.392;2024-03-22T12:43:11;95217.53;;;18.00;37.74
3102;BME280;1561;42.666;23.392;2024-03-22T12:45:44;95220.50;;;16.87;38.65
3102;BME280;1561;42.666;23.392;2024-03-22T12:48:13;95223.59;;;16.16;39.70
3102;BME280;1561;42.666;23.392;2024-03-22T12:50:47;95226.94;;;16.83;39.53
3102;BME280;1561;42.666;23.392;2024-03-22T12:53:32;95196.19;;;16.07;40.15
3102;BME280;1561;42.666;23.392;2024-03-22T12:56:10;95221.06;;;15.24;41.05
3102;BME280;1561;42.666;23.392;2024-03-22T12:58:41;95215.06;;;15.66;40.72
3102;BME280;1561;42.666;23.392;2024-03-22T13:01:12;95226.75;;;15.61;40.57
3102;BME280;1561;42.666;23.392;2024-03-22T13:03:40;95212.56;;;16.56;39.38
3102;BME280;1561;42.666;23.392;2024-03-22T13:06:24;95213.34;;;16.40;38.99
3102;BME280;1561;42.666;23.392;2024-03-22T13:08:55;95211.13;;;15.54;40.26
3102;BME280;1561;42.666;23.392;2024-03-22T13:14:50;95207.59;;;15.97;39.86
3102;BME280;1561;42.666;23.392;2024-03-22T13:17:20;95170.19;;;16.42;39.20
3102;BME280;1561;42.666;23.392;2024-03-22T13:19:50;95201.78;;;16.69;38.61
3102;BME280;1561;42.666;23.392;2024-03-22T13:22:23;95209.13;;;15.74;39.88
3102;BME280;1561;42.666;23.392;2024-03-22T13:24:49;95209.50;;;15.87;40.43
3102;BME280;1561;42.666;23.392;2024-03-22T13:27:18;95205.97;;;15.54;40.55
3102;BME280;1561;42.666;23.392;2024-03-22T13:29:47;95198.63;;;16.09;39.94
3102;BME280;1561;42.666;23.392;2024-03-22T13:32:15;95193.25;;;16.44;39.57
3102;BME280;1561;42.666;23.392;2024-03-22T13:34:48;95185.66;;;16.75;39.28
3102;BME280;1561;42.666;23.392;2024-03-22T13:37:17;95189.22;;;16.42;39.83
3102;BME280;1561;42.666;23.392;2024-03-22T13:39:48;95171.38;;;16.06;39.81
3102;BME280;1561;42.666;23.392;2024-03-22T13:42:19;95180.41;;;15.61;40.66
3102;BME280;1561;42.666;23.392;2024-03-22T13:44:50;95183.06;;;15.18;41.03
3102;BME280;1561;42.666;23.392;2024-03-22T13:47:18;95171.78;;;15.19;40.82
3102;BME280;1561;42.666;23.392;2024-03-22T13:49:46;95174.25;;;15.54;40.60
3102;BME280;1561;42.666;23.392;2024-03-22T13:52:31;95173.75;;;16.42;39.62
3102;BME280;1561;42.666;23.392;2024-03-22T13:55:01;95169.22;;;16.60;39.40
3102;BME280;1561;42.666;23.392;2024-03-22T13:57:29;95168.31;;;16.11;39.89
3102;BME280;1561;42.666;23.392;2024-03-22T13:59:58;95169.28;;;16.10;40.79
3102;BME280;1561;42.666;23.392;2024-03-22T14:02:28;95164.63;;;15.56;41.56